UKX1625 LYTV-LGKR
Flight info
| Callsign | UKX1625 |
|---|---|
| Flight time | 0h 41m |
| Altitude | 25000 |
| Route | LASTI L187 RODON N732 PITAS |
| Aircraft | RJ1H/M-SDFGIRWY/LB1 |
Departure
| Time | 2026-05-09 13:03 |
|---|---|
| Airport | Tivat Airport (LYTV) |
Arrival
| Time | 2026-05-09 13:45 |
|---|---|
| Airport | Corfu Ioannis Kapodistrias International Airport (LGKR) |
| Time | Latitude | Longitude | Altitude | Speed | Heading |
|---|---|---|---|---|---|
| 2026-05-09 12:34 | 42.41168 | 18.71750 | 4 ft | 0 kts | 165° |
| 2026-05-09 12:59 | 42.41160 | 18.71749 | 4 ft | 3 kts | 200° |
| 2026-05-09 12:59 | 42.41153 | 18.71708 | 4 ft | 7 kts | 293° |
| 2026-05-09 12:59 | 42.41195 | 18.71650 | 5 ft | 10 kts | 317° |
| 2026-05-09 12:59 | 42.41248 | 18.71585 | 6 ft | 10 kts | 319° |
| 2026-05-09 13:00 | 42.41306 | 18.71519 | 4 ft | 11 kts | 320° |
| 2026-05-09 13:00 | 42.41339 | 18.71480 | 4 ft | 0 kts | 317° |
| 2026-05-09 13:01 | 42.41342 | 18.71476 | 4 ft | 2 kts | 313° |
| 2026-05-09 13:01 | 42.41351 | 18.71453 | 4 ft | 4 kts | 288° |
| 2026-05-09 13:02 | 42.41349 | 18.71404 | 3 ft | 7 kts | 253° |
| 2026-05-09 13:02 | 42.41307 | 18.71357 | 3 ft | 10 kts | 187° |
| 2026-05-09 13:02 | 42.41237 | 18.71426 | 2 ft | 37 kts | 137° |
| 2026-05-09 13:02 | 42.40863 | 18.71867 | 4 ft | 103 kts | 139° |
| 2026-05-09 13:03 | 42.40217 | 18.72635 | 150 ft | 133 kts | 139° |
| 2026-05-09 13:03 | 42.39424 | 18.73424 | 399 ft | 156 kts | 148° |
| 2026-05-09 13:03 | 42.38547 | 18.74270 | 943 ft | 150 kts | 135° |
| 2026-05-09 13:03 | 42.37848 | 18.75244 | 1581 ft | 145 kts | 134° |
| 2026-05-09 13:04 | 42.37145 | 18.76231 | 2133 ft | 148 kts | 134° |
| 2026-05-09 13:04 | 42.36410 | 18.77241 | 2626 ft | 154 kts | 135° |
| 2026-05-09 13:04 | 42.35630 | 18.78280 | 3108 ft | 161 kts | 135° |
| 2026-05-09 13:04 | 42.34802 | 18.79354 | 3563 ft | 169 kts | 140° |
| 2026-05-09 13:05 | 42.33695 | 18.79829 | 3882 ft | 175 kts | 180° |
| 2026-05-09 13:05 | 42.32406 | 18.79834 | 4065 ft | 198 kts | 180° |
| 2026-05-09 13:05 | 42.30959 | 18.79799 | 4381 ft | 216 kts | 181° |
| 2026-05-09 13:05 | 42.29411 | 18.79730 | 4888 ft | 227 kts | 182° |
| 2026-05-09 13:06 | 42.27819 | 18.79660 | 5502 ft | 230 kts | 182° |
| 2026-05-09 13:06 | 42.26215 | 18.79798 | 6067 ft | 233 kts | 165° |
| 2026-05-09 13:06 | 42.24659 | 18.80457 | 6672 ft | 235 kts | 161° |
| 2026-05-09 13:06 | 42.23110 | 18.81208 | 7285 ft | 238 kts | 159° |
| 2026-05-09 13:07 | 42.21554 | 18.82028 | 7913 ft | 242 kts | 158° |
| 2026-05-09 13:07 | 42.19942 | 18.82915 | 8325 ft | 258 kts | 157° |
| 2026-05-09 13:07 | 42.18239 | 18.83894 | 8712 ft | 274 kts | 156° |
| 2026-05-09 13:07 | 42.16445 | 18.84926 | 9138 ft | 287 kts | 157° |
| 2026-05-09 13:08 | 42.14578 | 18.85985 | 9678 ft | 294 kts | 157° |
| 2026-05-09 13:08 | 42.12683 | 18.87063 | 10381 ft | 297 kts | 157° |
| 2026-05-09 13:08 | 42.10768 | 18.88158 | 11133 ft | 300 kts | 157° |
| 2026-05-09 13:08 | 42.08788 | 18.89104 | 11889 ft | 303 kts | 164° |
| 2026-05-09 13:09 | 42.06736 | 18.89842 | 12638 ft | 308 kts | 167° |
| 2026-05-09 13:09 | 42.04648 | 18.90537 | 13377 ft | 311 kts | 167° |
| 2026-05-09 13:09 | 42.02528 | 18.91222 | 14075 ft | 316 kts | 167° |
| 2026-05-09 13:09 | 42.00378 | 18.91911 | 14756 ft | 319 kts | 168° |
| 2026-05-09 13:10 | 41.98200 | 18.92608 | 15373 ft | 325 kts | 168° |
| 2026-05-09 13:10 | 41.95989 | 18.93335 | 15925 ft | 330 kts | 168° |
| 2026-05-09 13:10 | 41.93749 | 18.94087 | 16499 ft | 333 kts | 168° |
| 2026-05-09 13:10 | 41.91490 | 18.94851 | 17048 ft | 337 kts | 168° |
| 2026-05-09 13:11 | 41.89204 | 18.95620 | 17555 ft | 340 kts | 168° |
| 2026-05-09 13:11 | 41.86894 | 18.96378 | 18053 ft | 343 kts | 169° |
| 2026-05-09 13:11 | 41.84566 | 18.97139 | 18517 ft | 346 kts | 169° |
| 2026-05-09 13:11 | 41.82220 | 18.97919 | 18975 ft | 349 kts | 168° |
| 2026-05-09 13:12 | 41.79857 | 18.98705 | 19402 ft | 351 kts | 169° |
| 2026-05-09 13:12 | 41.77478 | 18.99499 | 19814 ft | 354 kts | 169° |
| 2026-05-09 13:12 | 41.75081 | 19.00306 | 20193 ft | 356 kts | 169° |
| 2026-05-09 13:12 | 41.72673 | 19.01125 | 20568 ft | 358 kts | 169° |
| 2026-05-09 13:13 | 41.70248 | 19.01956 | 20930 ft | 361 kts | 169° |
| 2026-05-09 13:13 | 41.67810 | 19.02787 | 21285 ft | 363 kts | 169° |
| 2026-05-09 13:13 | 41.65388 | 19.03588 | 21612 ft | 365 kts | 170° |
| 2026-05-09 13:13 | 41.62918 | 19.04403 | 21976 ft | 367 kts | 170° |
| 2026-05-09 13:14 | 41.60434 | 19.05222 | 22308 ft | 369 kts | 170° |
| 2026-05-09 13:14 | 41.57936 | 19.06054 | 22622 ft | 371 kts | 170° |
| 2026-05-09 13:16 | 41.40174 | 19.12717 | 24732 ft | 389 kts | 163° |
| 2026-05-09 13:16 | 41.37640 | 19.13990 | 24952 ft | 391 kts | 163° |
| 2026-05-09 13:16 | 41.35089 | 19.15295 | 25039 ft | 391 kts | 163° |
| 2026-05-09 13:16 | 41.32577 | 19.16565 | 25056 ft | 385 kts | 163° |
| 2026-05-09 13:17 | 41.30071 | 19.17819 | 25068 ft | 385 kts | 163° |
| 2026-05-09 13:17 | 41.27556 | 19.19059 | 25071 ft | 385 kts | 164° |
| 2026-05-09 13:17 | 41.25018 | 19.20276 | 25081 ft | 395 kts | 165° |
| 2026-05-09 13:17 | 41.22400 | 19.21527 | 25092 ft | 405 kts | 164° |
| 2026-05-09 13:18 | 41.19720 | 19.22832 | 25099 ft | 415 kts | 164° |
| 2026-05-09 13:18 | 41.16981 | 19.24169 | 25103 ft | 424 kts | 164° |
| 2026-05-09 13:18 | 41.14183 | 19.25533 | 25104 ft | 432 kts | 164° |
| 2026-05-09 13:18 | 41.11340 | 19.26914 | 25098 ft | 437 kts | 163° |
| 2026-05-09 13:19 | 41.08484 | 19.28302 | 25089 ft | 437 kts | 164° |
| 2026-05-09 13:19 | 41.05627 | 19.29692 | 25082 ft | 437 kts | 164° |
| 2026-05-09 13:19 | 41.02765 | 19.31085 | 25077 ft | 438 kts | 163° |
| 2026-05-09 13:19 | 40.99903 | 19.32476 | 25074 ft | 439 kts | 163° |
| 2026-05-09 13:20 | 40.98000 | 19.33401 | 25072 ft | 439 kts | 163° |
| 2026-05-09 13:20 | 40.95132 | 19.34772 | 25071 ft | 439 kts | 165° |
| 2026-05-09 13:20 | 40.92255 | 19.36125 | 25070 ft | 440 kts | 164° |
| 2026-05-09 13:20 | 40.89380 | 19.37512 | 25070 ft | 440 kts | 164° |
| 2026-05-09 13:21 | 40.86501 | 19.38904 | 25069 ft | 441 kts | 164° |
| 2026-05-09 13:21 | 40.83623 | 19.40304 | 25069 ft | 441 kts | 164° |
| 2026-05-09 13:21 | 40.80747 | 19.41688 | 25070 ft | 440 kts | 165° |
| 2026-05-09 13:21 | 40.77858 | 19.43047 | 25071 ft | 441 kts | 165° |
| 2026-05-09 13:22 | 40.74966 | 19.44417 | 25071 ft | 442 kts | 164° |
| 2026-05-09 13:22 | 40.72071 | 19.45815 | 25070 ft | 443 kts | 164° |
| 2026-05-09 13:22 | 40.69181 | 19.47217 | 25072 ft | 443 kts | 164° |
| 2026-05-09 13:23 | 40.57673 | 19.52718 | 25057 ft | 421 kts | 164° |
| 2026-05-09 13:23 | 40.54980 | 19.54006 | 25042 ft | 402 kts | 165° |
| 2026-05-09 13:24 | 40.52398 | 19.55248 | 25035 ft | 392 kts | 165° |
| 2026-05-09 13:24 | 40.49830 | 19.56476 | 25035 ft | 394 kts | 165° |
| 2026-05-09 13:24 | 40.47225 | 19.57710 | 24597 ft | 399 kts | 165° |
| 2026-05-09 13:24 | 40.44617 | 19.58943 | 24063 ft | 397 kts | 165° |
| 2026-05-09 13:25 | 40.42025 | 19.60159 | 23525 ft | 394 kts | 165° |
| 2026-05-09 13:25 | 40.39449 | 19.61356 | 22956 ft | 391 kts | 165° |
| 2026-05-09 13:25 | 40.34337 | 19.63730 | 21779 ft | 388 kts | 164° |
| 2026-05-09 13:26 | 40.31841 | 19.64917 | 21195 ft | 386 kts | 164° |
| 2026-05-09 13:26 | 40.29327 | 19.66117 | 20600 ft | 383 kts | 163° |
| 2026-05-09 13:26 | 40.26830 | 19.67310 | 20004 ft | 381 kts | 164° |
| 2026-05-09 13:26 | 40.24350 | 19.68473 | 19417 ft | 377 kts | 164° |
| 2026-05-09 13:27 | 40.21890 | 19.69611 | 18834 ft | 373 kts | 164° |
| 2026-05-09 13:27 | 40.19458 | 19.70760 | 18232 ft | 370 kts | 164° |
| 2026-05-09 13:27 | 40.17057 | 19.71891 | 17636 ft | 360 kts | 164° |
| 2026-05-09 13:27 | 40.14740 | 19.72968 | 17032 ft | 349 kts | 164° |
| 2026-05-09 13:28 | 40.12445 | 19.74050 | 16431 ft | 351 kts | 163° |
| 2026-05-09 13:28 | 40.10153 | 19.75137 | 15848 ft | 350 kts | 163° |
| 2026-05-09 13:28 | 40.07873 | 19.76214 | 15260 ft | 348 kts | 163° |
| 2026-05-09 13:28 | 40.05605 | 19.77278 | 14672 ft | 345 kts | 163° |
| 2026-05-09 13:29 | 40.03353 | 19.78329 | 14081 ft | 342 kts | 163° |
| 2026-05-09 13:29 | 40.01118 | 19.79366 | 13482 ft | 339 kts | 163° |
| 2026-05-09 13:29 | 39.98903 | 19.80382 | 12886 ft | 336 kts | 163° |
| 2026-05-09 13:29 | 39.96730 | 19.81373 | 12547 ft | 325 kts | 163° |
| 2026-05-09 13:30 | 39.94634 | 19.82357 | 12213 ft | 316 kts | 163° |
| 2026-05-09 13:30 | 39.92578 | 19.83321 | 11879 ft | 312 kts | 163° |
| 2026-05-09 13:30 | 39.90552 | 19.84271 | 11548 ft | 307 kts | 163° |
| 2026-05-09 13:30 | 39.88554 | 19.85213 | 11219 ft | 303 kts | 162° |
| 2026-05-09 13:31 | 39.86593 | 19.86178 | 10884 ft | 300 kts | 161° |
| 2026-05-09 13:31 | 39.84648 | 19.87156 | 10557 ft | 299 kts | 161° |
| 2026-05-09 13:31 | 39.82715 | 19.88125 | 10231 ft | 297 kts | 160° |
| 2026-05-09 13:31 | 39.80797 | 19.89101 | 9905 ft | 295 kts | 160° |
| 2026-05-09 13:32 | 39.78889 | 19.90070 | 9579 ft | 293 kts | 160° |
| 2026-05-09 13:32 | 39.75115 | 19.91992 | 8935 ft | 289 kts | 160° |
| 2026-05-09 13:32 | 39.73219 | 19.92812 | 8596 ft | 287 kts | 173° |
| 2026-05-09 13:33 | 39.71279 | 19.92496 | 8282 ft | 283 kts | 205° |
| 2026-05-09 13:33 | 39.69663 | 19.91076 | 7989 ft | 281 kts | 220° |
| 2026-05-09 13:33 | 39.68157 | 19.89465 | 7702 ft | 280 kts | 220° |
| 2026-05-09 13:33 | 39.66675 | 19.87832 | 7403 ft | 279 kts | 221° |
| 2026-05-09 13:34 | 39.65210 | 19.86188 | 7107 ft | 278 kts | 223° |
| 2026-05-09 13:34 | 39.63836 | 19.84423 | 6820 ft | 277 kts | 226° |
| 2026-05-09 13:34 | 39.62526 | 19.82635 | 6530 ft | 277 kts | 227° |
| 2026-05-09 13:34 | 39.61195 | 19.80828 | 6228 ft | 277 kts | 226° |
| 2026-05-09 13:35 | 39.59667 | 19.79341 | 5967 ft | 275 kts | 210° |
| 2026-05-09 13:35 | 39.57976 | 19.78205 | 5725 ft | 273 kts | 207° |
| 2026-05-09 13:35 | 39.56270 | 19.77112 | 5479 ft | 273 kts | 206° |
| 2026-05-09 13:35 | 39.54557 | 19.76047 | 5223 ft | 273 kts | 206° |
| 2026-05-09 13:36 | 39.52838 | 19.74997 | 4972 ft | 273 kts | 206° |
| 2026-05-09 13:36 | 39.51117 | 19.73975 | 4734 ft | 272 kts | 202° |
| 2026-05-09 13:36 | 39.49292 | 19.73352 | 4496 ft | 272 kts | 191° |
| 2026-05-09 13:36 | 39.47425 | 19.72951 | 4256 ft | 271 kts | 189° |
| 2026-05-09 13:37 | 39.45554 | 19.72768 | 4089 ft | 269 kts | 179° |
| 2026-05-09 13:37 | 39.43692 | 19.72905 | 4027 ft | 268 kts | 176° |
| 2026-05-09 13:37 | 39.41838 | 19.73149 | 3994 ft | 267 kts | 168° |
| 2026-05-09 13:37 | 39.40208 | 19.74262 | 3473 ft | 270 kts | 133° |
| 2026-05-09 13:38 | 39.39362 | 19.76328 | 3373 ft | 256 kts | 99° |
| 2026-05-09 13:38 | 39.39348 | 19.78534 | 3384 ft | 238 kts | 85° |
| 2026-05-09 13:38 | 39.39489 | 19.80609 | 3371 ft | 226 kts | 84° |
| 2026-05-09 13:38 | 39.39642 | 19.82592 | 3331 ft | 217 kts | 84° |
| 2026-05-09 13:39 | 39.39774 | 19.84493 | 3290 ft | 209 kts | 85° |
| 2026-05-09 13:39 | 39.39873 | 19.86330 | 3260 ft | 201 kts | 86° |
| 2026-05-09 13:39 | 39.40055 | 19.88109 | 3124 ft | 199 kts | 77° |
| 2026-05-09 13:39 | 39.40405 | 19.89861 | 2962 ft | 205 kts | 73° |
| 2026-05-09 13:40 | 39.40805 | 19.91606 | 2919 ft | 204 kts | 72° |
| 2026-05-09 13:40 | 39.41226 | 19.93368 | 2910 ft | 202 kts | 71° |
| 2026-05-09 13:40 | 39.41671 | 19.95061 | 2904 ft | 201 kts | 62° |
| 2026-05-09 13:40 | 39.42652 | 19.96258 | 2815 ft | 197 kts | 17° |
| 2026-05-09 13:41 | 39.44013 | 19.96502 | 2681 ft | 195 kts | 2° |
| 2026-05-09 13:41 | 39.45348 | 19.96556 | 2508 ft | 196 kts | 356° |
| 2026-05-09 13:41 | 39.46698 | 19.96277 | 2360 ft | 196 kts | 345° |
| 2026-05-09 13:41 | 39.48007 | 19.95787 | 2203 ft | 196 kts | 342° |
| 2026-05-09 13:42 | 39.49298 | 19.95241 | 2026 ft | 195 kts | 341° |
| 2026-05-09 13:42 | 39.50583 | 19.94703 | 1830 ft | 195 kts | 342° |
| 2026-05-09 13:42 | 39.51909 | 19.94173 | 1635 ft | 202 kts | 343° |
| 2026-05-09 13:42 | 39.53261 | 19.93660 | 1448 ft | 203 kts | 344° |
| 2026-05-09 13:43 | 39.54602 | 19.93169 | 1270 ft | 195 kts | 344° |
| 2026-05-09 13:43 | 39.55825 | 19.92712 | 1045 ft | 170 kts | 343° |
| 2026-05-09 13:43 | 39.56845 | 19.92142 | 632 ft | 156 kts | 334° |
| 2026-05-09 13:43 | 39.57825 | 19.91772 | 337 ft | 140 kts | 350° |
| 2026-05-09 13:44 | 39.58765 | 19.91575 | 66 ft | 131 kts | 348° |
| 2026-05-09 13:44 | 39.59562 | 19.91365 | 7 ft | 103 kts | 350° |
| 2026-05-09 13:44 | 39.60179 | 19.91217 | 10 ft | 79 kts | 349° |
| 2026-05-09 13:44 | 39.60646 | 19.91101 | 7 ft | 50 kts | 349° |
| 2026-05-09 13:45 | 39.60879 | 19.91039 | 9 ft | 21 kts | 348° |
| 2026-05-09 13:45 | 39.60989 | 19.91010 | 8 ft | 15 kts | 349° |
| 2026-05-09 13:45 | 39.61042 | 19.91034 | 9 ft | 5 kts | 66° |
| 2026-05-09 13:45 | 39.61056 | 19.91075 | 9 ft | 4 kts | 66° |
| 2026-05-09 13:46 | 39.61063 | 19.91109 | 9 ft | 4 kts | 103° |
| 2026-05-09 13:46 | 39.61043 | 19.91130 | 9 ft | 4 kts | 155° |
| 2026-05-09 13:46 | 39.61012 | 19.91140 | 9 ft | 6 kts | 173° |
| 2026-05-09 13:46 | 39.60964 | 19.91148 | 9 ft | 8 kts | 171° |
| 2026-05-09 13:47 | 39.60903 | 19.91160 | 9 ft | 9 kts | 171° |
| 2026-05-09 13:47 | 39.60853 | 19.91206 | 9 ft | 9 kts | 145° |
| 2026-05-09 13:47 | 39.60829 | 19.91256 | 9 ft | 6 kts | 84° |
| 2026-05-09 13:47 | 39.60837 | 19.91306 | 9 ft | 3 kts | 78° |
| 2026-05-09 13:48 | 39.60839 | 19.91324 | 9 ft | 1 kts | 79° |
| 2026-05-09 13:48 | 39.60840 | 19.91332 | 9 ft | 0 kts | 79° |